sensor_id;sensor_type;location;lat;lon;timestamp;temperature;humidity
21001;DHT22;10658;50.920;12.238;2023-08-08T00:00:34;11.80;99.90
21001;DHT22;10658;50.920;12.238;2023-08-08T00:04:34;11.80;99.90
21001;DHT22;10658;50.920;12.238;2023-08-08T00:08:36;11.70;99.90
21001;DHT22;10658;50.920;12.238;2023-08-08T00:12:37;11.70;99.90
21001;DHT22;10658;50.920;12.238;2023-08-08T00:16:37;11.70;99.90
21001;DHT22;10658;50.920;12.238;2023-08-08T00:20:38;11.60;99.90
21001;DHT22;10658;50.920;12.238;2023-08-08T00:24:39;11.50;99.90
21001;DHT22;10658;50.920;12.238;2023-08-08T00:28:40;11.50;99.90
21001;DHT22;10658;50.920;12.238;2023-08-08T00:32:42;11.50;99.90
21001;DHT22;10658;50.920;12.238;2023-08-08T00:36:43;11.50;99.90
21001;DHT22;10658;50.920;12.238;2023-08-08T00:40:44;11.50;99.90
21001;DHT22;10658;50.920;12.238;2023-08-08T00:44:46;11.50;99.90
21001;DHT22;10658;50.920;12.238;2023-08-08T00:48:52;11.50;99.90
21001;DHT22;10658;50.920;12.238;2023-08-08T00:52:56;11.50;99.90
21001;DHT22;10658;50.920;12.238;2023-08-08T00:57:00;11.50;99.90
21001;DHT22;10658;50.920;12.238;2023-08-08T01:01:03;11.50;99.90
21001;DHT22;10658;50.920;12.238;2023-08-08T01:05:05;11.50;99.90
21001;DHT22;10658;50.920;12.238;2023-08-08T01:09:16;11.40;99.90
21001;DHT22;10658;50.920;12.238;2023-08-08T01:13:22;11.30;99.90
21001;DHT22;10658;50.920;12.238;2023-08-08T01:17:25;11.20;99.90
21001;DHT22;10658;50.920;12.238;2023-08-08T01:21:28;11.20;99.90
21001;DHT22;10658;50.920;12.238;2023-08-08T01:25:31;11.20;99.90
21001;DHT22;10658;50.920;12.238;2023-08-08T01:29:32;11.20;99.90
21001;DHT22;10658;50.920;12.238;2023-08-08T01:33:34;11.20;99.90
21001;DHT22;10658;50.920;12.238;2023-08-08T01:37:48;11.20;99.90
21001;DHT22;10658;50.920;12.238;2023-08-08T01:41:50;11.20;99.90
21001;DHT22;10658;50.920;12.238;2023-08-08T01:45:52;11.30;99.90
21001;DHT22;10658;50.920;12.238;2023-08-08T01:49:55;11.20;99.90
21001;DHT22;10658;50.920;12.238;2023-08-08T01:53:56;11.20;99.90
21001;DHT22;10658;50.920;12.238;2023-08-08T01:57:57;11.20;99.90
21001;DHT22;10658;50.920;12.238;2023-08-08T02:01:58;11.20;99.90
21001;DHT22;10658;50.920;12.238;2023-08-08T02:05:59;11.20;99.90
21001;DHT22;10658;50.920;12.238;2023-08-08T02:10:00;11.10;99.90
21001;DHT22;10658;50.920;12.238;2023-08-08T02:14:00;11.10;99.90
21001;DHT22;10658;50.920;12.238;2023-08-08T02:18:01;11.00;99.90
21001;DHT22;10658;50.920;12.238;2023-08-08T02:22:04;11.00;99.90
21001;DHT22;10658;50.920;12.238;2023-08-08T02:26:05;11.00;99.90
21001;DHT22;10658;50.920;12.238;2023-08-08T02:30:07;10.90;99.90
21001;DHT22;10658;50.920;12.238;2023-08-08T02:34:08;10.90;99.90
21001;DHT22;10658;50.920;12.238;2023-08-08T02:38:09;10.90;99.90
21001;DHT22;10658;50.920;12.238;2023-08-08T02:42:10;10.90;99.90
21001;DHT22;10658;50.920;12.238;2023-08-08T02:46:11;11.00;99.90
21001;DHT22;10658;50.920;12.238;2023-08-08T02:50:12;11.00;99.90
21001;DHT22;10658;50.920;12.238;2023-08-08T02:54:13;11.00;99.90
21001;DHT22;10658;50.920;12.238;2023-08-08T02:58:17;11.00;99.90
21001;DHT22;10658;50.920;12.238;2023-08-08T03:02:19;11.00;99.90
21001;DHT22;10658;50.920;12.238;2023-08-08T03:06:21;10.90;99.90
21001;DHT22;10658;50.920;12.238;2023-08-08T03:10:23;10.90;99.90
21001;DHT22;10658;50.920;12.238;2023-08-08T03:14:24;10.80;99.90
21001;DHT22;10658;50.920;12.238;2023-08-08T03:18:26;10.70;99.90
21001;DHT22;10658;50.920;12.238;2023-08-08T03:22:29;10.70;99.90
21001;DHT22;10658;50.920;12.238;2023-08-08T03:26:32;10.60;99.90
21001;DHT22;10658;50.920;12.238;2023-08-08T03:30:37;10.60;99.90
21001;DHT22;10658;50.920;12.238;2023-08-08T03:34:41;10.70;99.90
21001;DHT22;10658;50.920;12.238;2023-08-08T03:38:46;10.80;99.90
21001;DHT22;10658;50.920;12.238;2023-08-08T03:42:49;10.70;99.90
21001;DHT22;10658;50.920;12.238;2023-08-08T03:46:51;10.70;99.90
21001;DHT22;10658;50.920;12.238;2023-08-08T03:50:53;10.90;99.90
21001;DHT22;10658;50.920;12.238;2023-08-08T03:54:59;11.00;99.90
21001;DHT22;10658;50.920;12.238;2023-08-08T03:59:02;11.00;99.90
21001;DHT22;10658;50.920;12.238;2023-08-08T04:03:04;11.00;99.90
21001;DHT22;10658;50.920;12.238;2023-08-08T04:07:06;11.10;99.90
21001;DHT22;10658;50.920;12.238;2023-08-08T04:11:08;11.10;99.90
21001;DHT22;10658;50.920;12.238;2023-08-08T04:15:11;11.00;99.90
21001;DHT22;10658;50.920;12.238;2023-08-08T04:19:13;11.10;99.90
21001;DHT22;10658;50.920;12.238;2023-08-08T04:23:16;11.20;99.90
21001;DHT22;10658;50.920;12.238;2023-08-08T04:27:19;11.30;99.90
21001;DHT22;10658;50.920;12.238;2023-08-08T04:31:21;11.60;99.90
21001;DHT22;10658;50.920;12.238;2023-08-08T04:35:26;11.80;99.90
21001;DHT22;10658;50.920;12.238;2023-08-08T04:39:29;11.90;99.90
21001;DHT22;10658;50.920;12.238;2023-08-08T04:43:31;12.00;99.90
21001;DHT22;10658;50.920;12.238;2023-08-08T04:47:34;12.00;99.90
21001;DHT22;10658;50.920;12.238;2023-08-08T04:51:37;12.00;99.90
21001;DHT22;10658;50.920;12.238;2023-08-08T04:55:39;12.00;99.90
21001;DHT22;10658;50.920;12.238;2023-08-08T04:59:42;12.00;99.90
21001;DHT22;10658;50.920;12.238;2023-08-08T05:03:45;12.10;99.90
21001;DHT22;10658;50.920;12.238;2023-08-08T05:07:48;12.10;99.90
21001;DHT22;10658;50.920;12.238;2023-08-08T05:11:52;12.10;99.90
21001;DHT22;10658;50.920;12.238;2023-08-08T05:15:55;12.20;99.90
21001;DHT22;10658;50.920;12.238;2023-08-08T05:20:00;12.20;99.90
21001;DHT22;10658;50.920;12.238;2023-08-08T05:24:03;12.20;99.90
21001;DHT22;10658;50.920;12.238;2023-08-08T05:28:06;12.30;99.90
21001;DHT22;10658;50.920;12.238;2023-08-08T05:32:14;12.30;99.90
21001;DHT22;10658;50.920;12.238;2023-08-08T05:36:17;12.30;99.90
21001;DHT22;10658;50.920;12.238;2023-08-08T05:40:19;12.30;99.90
21001;DHT22;10658;50.920;12.238;2023-08-08T05:44:23;12.40;99.90
21001;DHT22;10658;50.920;12.238;2023-08-08T05:48:29;12.50;99.90
21001;DHT22;10658;50.920;12.238;2023-08-08T05:52:35;12.50;99.90
21001;DHT22;10658;50.920;12.238;2023-08-08T05:56:40;12.50;99.90
21001;DHT22;10658;50.920;12.238;2023-08-08T06:00:52;12.50;99.90
21001;DHT22;10658;50.920;12.238;2023-08-08T06:05:01;12.50;99.90
21001;DHT22;10658;50.920;12.238;2023-08-08T06:09:04;12.50;99.90
21001;DHT22;10658;50.920;12.238;2023-08-08T06:13:10;12.40;99.90
21001;DHT22;10658;50.920;12.238;2023-08-08T06:17:16;12.40;99.90
21001;DHT22;10658;50.920;12.238;2023-08-08T06:21:21;12.40;99.90
21001;DHT22;10658;50.920;12.238;2023-08-08T06:25:28;12.70;99.90
21001;DHT22;10658;50.920;12.238;2023-08-08T06:29:31;12.80;99.90
21001;DHT22;10658;50.920;12.238;2023-08-08T06:33:36;12.90;99.90
21001;DHT22;10658;50.920;12.238;2023-08-08T06:37:48;12.90;99.90
21001;DHT22;10658;50.920;12.238;2023-08-08T06:41:57;12.90;99.90
21001;DHT22;10658;50.920;12.238;2023-08-08T06:46:14;12.80;99.90
21001;DHT22;10658;50.920;12.238;2023-08-08T06:50:17;12.90;99.90
21001;DHT22;10658;50.920;12.238;2023-08-08T06:54:21;12.90;99.90
21001;DHT22;10658;50.920;12.238;2023-08-08T06:58:29;12.90;99.90
21001;DHT22;10658;50.920;12.238;2023-08-08T07:02:33;12.90;99.90
21001;DHT22;10658;50.920;12.238;2023-08-08T07:06:38;13.00;99.90
21001;DHT22;10658;50.920;12.238;2023-08-08T07:10:40;13.10;99.90
21001;DHT22;10658;50.920;12.238;2023-08-08T07:14:43;13.10;99.90
21001;DHT22;10658;50.920;12.238;2023-08-08T07:18:49;13.20;99.90
21001;DHT22;10658;50.920;12.238;2023-08-08T07:22:58;13.30;99.90
21001;DHT22;10658;50.920;12.238;2023-08-08T07:27:03;13.60;99.90
21001;DHT22;10658;50.920;12.238;2023-08-08T07:31:14;13.90;99.90
21001;DHT22;10658;50.920;12.238;2023-08-08T07:35:21;14.10;99.90
21001;DHT22;10658;50.920;12.238;2023-08-08T07:39:27;14.20;99.90
21001;DHT22;10658;50.920;12.238;2023-08-08T07:43:30;14.10;99.90
21001;DHT22;10658;50.920;12.238;2023-08-08T07:47:35;14.10;99.90
21001;DHT22;10658;50.920;12.238;2023-08-08T07:51:38;14.20;99.90
21001;DHT22;10658;50.920;12.238;2023-08-08T07:55:45;14.50;99.90
21001;DHT22;10658;50.920;12.238;2023-08-08T07:59:48;14.70;99.90
21001;DHT22;10658;50.920;12.238;2023-08-08T08:03:54;15.10;99.90
21001;DHT22;10658;50.920;12.238;2023-08-08T08:08:08;15.20;99.90
21001;DHT22;10658;50.920;12.238;2023-08-08T08:12:14;15.40;99.90
21001;DHT22;10658;50.920;12.238;2023-08-08T08:16:20;15.50;99.90
21001;DHT22;10658;50.920;12.238;2023-08-08T08:20:29;15.50;99.90
21001;DHT22;10658;50.920;12.238;2023-08-08T08:24:32;16.30;99.90
21001;DHT22;10658;50.920;12.238;2023-08-08T08:28:34;16.90;99.90
21001;DHT22;10658;50.920;12.238;2023-08-08T08:32:43;16.80;99.90
21001;DHT22;10658;50.920;12.238;2023-08-08T08:36:49;16.50;99.90
21001;DHT22;10658;50.920;12.238;2023-08-08T08:40:54;16.50;99.90
21001;DHT22;10658;50.920;12.238;2023-08-08T08:45:02;16.50;99.90
21001;DHT22;10658;50.920;12.238;2023-08-08T08:49:09;16.60;99.90
21001;DHT22;10658;50.920;12.238;2023-08-08T08:53:15;16.50;99.90
21001;DHT22;10658;50.920;12.238;2023-08-08T08:57:21;16.40;99.90
21001;DHT22;10658;50.920;12.238;2023-08-08T09:01:31;16.40;99.90
21001;DHT22;10658;50.920;12.238;2023-08-08T09:05:34;16.20;99.90
21001;DHT22;10658;50.920;12.238;2023-08-08T09:09:46;16.10;99.90
21001;DHT22;10658;50.920;12.238;2023-08-08T09:13:52;16.10;99.90
21001;DHT22;10658;50.920;12.238;2023-08-08T09:18:19;16.20;99.90
21001;DHT22;10658;50.920;12.238;2023-08-08T09:22:25;16.40;99.90
21001;DHT22;10658;50.920;12.238;2023-08-08T09:26:29;16.60;99.90
21001;DHT22;10658;50.920;12.238;2023-08-08T09:30:36;16.80;99.90
21001;DHT22;10658;50.920;12.238;2023-08-08T09:34:51;17.20;99.90
21001;DHT22;10658;50.920;12.238;2023-08-08T09:38:54;17.80;99.90
21001;DHT22;10658;50.920;12.238;2023-08-08T09:43:01;18.20;99.90
21001;DHT22;10658;50.920;12.238;2023-08-08T09:47:12;17.90;99.90
21001;DHT22;10658;50.920;12.238;2023-08-08T09:51:20;17.60;99.90
21001;DHT22;10658;50.920;12.238;2023-08-08T09:55:24;17.50;99.90
21001;DHT22;10658;50.920;12.238;2023-08-08T09:59:35;17.50;99.90
21001;DHT22;10658;50.920;12.238;2023-08-08T10:03:40;17.60;99.90
21001;DHT22;10658;50.920;12.238;2023-08-08T10:07:56;17.70;99.90
21001;DHT22;10658;50.920;12.238;2023-08-08T10:12:12;18.00;99.90
21001;DHT22;10658;50.920;12.238;2023-08-08T10:16:26;18.90;99.90
21001;DHT22;10658;50.920;12.238;2023-08-08T10:20:32;19.60;99.90
21001;DHT22;10658;50.920;12.238;2023-08-08T10:24:40;20.20;99.90
21001;DHT22;10658;50.920;12.238;2023-08-08T10:29:17;20.30;99.90
21001;DHT22;10658;50.920;12.238;2023-08-08T10:33:44;20.80;99.90
21001;DHT22;10658;50.920;12.238;2023-08-08T10:37:59;20.60;99.90
21001;DHT22;10658;50.920;12.238;2023-08-08T10:42:06;19.90;99.90
21001;DHT22;10658;50.920;12.238;2023-08-08T10:46:21;19.60;99.90
21001;DHT22;10658;50.920;12.238;2023-08-08T10:50:24;19.60;99.90
21001;DHT22;10658;50.920;12.238;2023-08-08T10:59:16;19.40;99.90
21001;DHT22;10658;50.920;12.238;2023-08-08T11:03:27;19.20;99.90
21001;DHT22;10658;50.920;12.238;2023-08-08T11:07:33;18.90;99.90
21001;DHT22;10658;50.920;12.238;2023-08-08T11:11:46;18.70;99.90
21001;DHT22;10658;50.920;12.238;2023-08-08T11:15:58;18.60;99.90
21001;DHT22;10658;50.920;12.238;2023-08-08T11:20:14;18.60;99.90
21001;DHT22;10658;50.920;12.238;2023-08-08T11:24:24;19.00;99.90
21001;DHT22;10658;50.920;12.238;2023-08-08T11:28:27;18.90;99.90
21001;DHT22;10658;50.920;12.238;2023-08-08T11:32:34;18.70;99.90
21001;DHT22;10658;50.920;12.238;2023-08-08T11:36:37;18.90;99.90
21001;DHT22;10658;50.920;12.238;2023-08-08T11:40:49;19.20;99.90
21001;DHT22;10658;50.920;12.238;2023-08-08T11:44:55;19.60;99.90
21001;DHT22;10658;50.920;12.238;2023-08-08T11:49:07;19.90;99.90
21001;DHT22;10658;50.920;12.238;2023-08-08T11:53:10;19.90;99.90
21001;DHT22;10658;50.920;12.238;2023-08-08T11:57:12;20.20;99.90
21001;DHT22;10658;50.920;12.238;2023-08-08T12:01:32;20.10;99.90
21001;DHT22;10658;50.920;12.238;2023-08-08T12:05:44;19.90;99.90
21001;DHT22;10658;50.920;12.238;2023-08-08T12:09:50;20.30;99.90
21001;DHT22;10658;50.920;12.238;2023-08-08T12:13:59;19.90;99.90
21001;DHT22;10658;50.920;12.238;2023-08-08T12:18:33;19.50;99.90
21001;DHT22;10658;50.920;12.238;2023-08-08T12:22:46;19.10;99.90
21001;DHT22;10658;50.920;12.238;2023-08-08T12:26:52;19.80;99.90
21001;DHT22;10658;50.920;12.238;2023-08-08T12:30:58;21.00;99.90
21001;DHT22;10658;50.920;12.238;2023-08-08T12:35:01;21.10;99.90
21001;DHT22;10658;50.920;12.238;2023-08-08T12:39:05;21.20;99.90
21001;DHT22;10658;50.920;12.238;2023-08-08T12:43:14;20.80;99.90
21001;DHT22;10658;50.920;12.238;2023-08-08T12:47:19;20.90;99.90
21001;DHT22;10658;50.920;12.238;2023-08-08T12:51:23;20.90;99.90
21001;DHT22;10658;50.920;12.238;2023-08-08T12:55:25;20.50;99.90
21001;DHT22;10658;50.920;12.238;2023-08-08T12:59:29;20.20;99.90
21001;DHT22;10658;50.920;12.238;2023-08-08T13:03:32;20.40;99.90
21001;DHT22;10658;50.920;12.238;2023-08-08T13:07:36;20.70;99.90
21001;DHT22;10658;50.920;12.238;2023-08-08T13:11:42;21.20;99.90
21001;DHT22;10658;50.920;12.238;2023-08-08T13:15:46;21.50;99.90
21001;DHT22;10658;50.920;12.238;2023-08-08T13:19:52;21.00;99.90
21001;DHT22;10658;50.920;12.238;2023-08-08T13:23:58;20.60;99.90
21001;DHT22;10658;50.920;12.238;2023-08-08T13:28:07;20.00;99.90
21001;DHT22;10658;50.920;12.238;2023-08-08T13:32:11;19.60;99.90
21001;DHT22;10658;50.920;12.238;2023-08-08T13:36:18;19.50;99.90
21001;DHT22;10658;50.920;12.238;2023-08-08T13:40:22;19.80;99.90
21001;DHT22;10658;50.920;12.238;2023-08-08T13:44:28;20.00;99.90
21001;DHT22;10658;50.920;12.238;2023-08-08T13:48:30;20.30;99.90
21001;DHT22;10658;50.920;12.238;2023-08-08T13:52:36;20.20;99.90
21001;DHT22;10658;50.920;12.238;2023-08-08T13:56:39;19.90;99.90
21001;DHT22;10658;50.920;12.238;2023-08-08T14:00:41;19.60;99.90
21001;DHT22;10658;50.920;12.238;2023-08-08T14:04:46;19.40;99.90
21001;DHT22;10658;50.920;12.238;2023-08-08T14:08:51;19.20;99.90
21001;DHT22;10658;50.920;12.238;2023-08-08T14:12:54;19.10;99.90
21001;DHT22;10658;50.920;12.238;2023-08-08T14:16:57;19.00;99.90
21001;DHT22;10658;50.920;12.238;2023-08-08T14:20:59;18.90;99.90
21001;DHT22;10658;50.920;12.238;2023-08-08T14:25:05;18.90;99.90
21001;DHT22;10658;50.920;12.238;2023-08-08T14:29:08;18.90;99.90
21001;DHT22;10658;50.920;12.238;2023-08-08T14:33:14;18.90;99.90
21001;DHT22;10658;50.920;12.238;2023-08-08T14:37:19;18.80;99.90
21001;DHT22;10658;50.920;12.238;2023-08-08T14:41:23;18.60;99.90
21001;DHT22;10658;50.920;12.238;2023-08-08T14:45:27;18.50;99.90
21001;DHT22;10658;50.920;12.238;2023-08-08T14:49:33;18.40;99.90
21001;DHT22;10658;50.920;12.238;2023-08-08T14:53:38;18.50;99.90
21001;DHT22;10658;50.920;12.238;2023-08-08T14:57:43;18.50;99.90
21001;DHT22;10658;50.920;12.238;2023-08-08T15:01:50;18.30;99.90
21001;DHT22;10658;50.920;12.238;2023-08-08T15:05:54;17.80;99.90
21001;DHT22;10658;50.920;12.238;2023-08-08T15:09:57;17.40;99.90
21001;DHT22;10658;50.920;12.238;2023-08-08T15:14:02;17.20;99.90
21001;DHT22;10658;50.920;12.238;2023-08-08T15:18:05;17.00;99.90
21001;DHT22;10658;50.920;12.238;2023-08-08T15:22:11;16.80;99.90
21001;DHT22;10658;50.920;12.238;2023-08-08T15:26:23;16.80;99.90
21001;DHT22;10658;50.920;12.238;2023-08-08T15:30:29;16.80;99.90
21001;DHT22;10658;50.920;12.238;2023-08-08T15:34:37;16.80;99.90
21001;DHT22;10658;50.920;12.238;2023-08-08T15:38:41;16.60;99.90
21001;DHT22;10658;50.920;12.238;2023-08-08T15:42:44;16.70;99.90
21001;DHT22;10658;50.920;12.238;2023-08-08T15:46:47;16.60;99.90
21001;DHT22;10658;50.920;12.238;2023-08-08T15:50:51;16.60;99.90
21001;DHT22;10658;50.920;12.238;2023-08-08T15:54:54;16.50;99.90
21001;DHT22;10658;50.920;12.238;2023-08-08T15:58:58;16.50;99.90
21001;DHT22;10658;50.920;12.238;2023-08-08T16:03:01;16.40;99.90
21001;DHT22;10658;50.920;12.238;2023-08-08T16:07:04;16.50;99.90
21001;DHT22;10658;50.920;12.238;2023-08-08T16:11:14;16.50;99.90
21001;DHT22;10658;50.920;12.238;2023-08-08T16:15:16;16.60;99.90
21001;DHT22;10658;50.920;12.238;2023-08-08T16:19:20;16.70;99.90
21001;DHT22;10658;50.920;12.238;2023-08-08T16:23:24;16.80;99.90
21001;DHT22;10658;50.920;12.238;2023-08-08T16:27:29;16.70;99.90
21001;DHT22;10658;50.920;12.238;2023-08-08T16:31:42;16.70;99.90
21001;DHT22;10658;50.920;12.238;2023-08-08T16:35:50;16.70;99.90
21001;DHT22;10658;50.920;12.238;2023-08-08T16:39:54;16.80;99.90
21001;DHT22;10658;50.920;12.238;2023-08-08T16:44:26;16.80;99.90
21001;DHT22;10658;50.920;12.238;2023-08-08T16:48:35;16.80;99.90
21001;DHT22;10658;50.920;12.238;2023-08-08T16:52:39;16.80;99.90
21001;DHT22;10658;50.920;12.238;2023-08-08T16:56:56;16.80;99.90
21001;DHT22;10658;50.920;12.238;2023-08-08T17:00:58;16.70;99.90
21001;DHT22;10658;50.920;12.238;2023-08-08T17:05:04;16.70;99.90
21001;DHT22;10658;50.920;12.238;2023-08-08T17:09:08;16.70;99.90
21001;DHT22;10658;50.920;12.238;2023-08-08T17:13:32;16.80;99.90
21001;DHT22;10658;50.920;12.238;2023-08-08T17:17:35;16.90;99.90
21001;DHT22;10658;50.920;12.238;2023-08-08T17:21:44;16.90;99.90
21001;DHT22;10658;50.920;12.238;2023-08-08T17:25:58;17.00;99.90
21001;DHT22;10658;50.920;12.238;2023-08-08T17:30:09;16.90;99.90
21001;DHT22;10658;50.920;12.238;2023-08-08T17:34:15;17.00;99.90
21001;DHT22;10658;50.920;12.238;2023-08-08T17:38:39;17.00;99.90
21001;DHT22;10658;50.920;12.238;2023-08-08T17:42:46;16.90;99.90
21001;DHT22;10658;50.920;12.238;2023-08-08T17:46:50;16.80;99.90
21001;DHT22;10658;50.920;12.238;2023-08-08T17:51:12;16.70;99.90
21001;DHT22;10658;50.920;12.238;2023-08-08T17:55:32;16.50;99.90
21001;DHT22;10658;50.920;12.238;2023-08-08T17:59:38;16.40;99.90
21001;DHT22;10658;50.920;12.238;2023-08-08T18:03:55;16.40;99.90
21001;DHT22;10658;50.920;12.238;2023-08-08T18:08:04;16.30;99.90
21001;DHT22;10658;50.920;12.238;2023-08-08T18:12:10;16.30;99.90
21001;DHT22;10658;50.920;12.238;2023-08-08T18:16:26;16.30;99.90
21001;DHT22;10658;50.920;12.238;2023-08-08T18:20:35;16.30;99.90
21001;DHT22;10658;50.920;12.238;2023-08-08T18:24:41;16.30;99.90
21001;DHT22;10658;50.920;12.238;2023-08-08T18:28:56;16.20;99.90
21001;DHT22;10658;50.920;12.238;2023-08-08T18:33:06;16.20;99.90
21001;DHT22;10658;50.920;12.238;2023-08-08T18:37:11;16.10;99.90
21001;DHT22;10658;50.920;12.238;2023-08-08T18:41:23;16.10;99.90
21001;DHT22;10658;50.920;12.238;2023-08-08T18:45:29;16.00;99.90
21001;DHT22;10658;50.920;12.238;2023-08-08T18:49:42;16.10;99.90
21001;DHT22;10658;50.920;12.238;2023-08-08T18:53:45;16.00;99.90
21001;DHT22;10658;50.920;12.238;2023-08-08T18:57:56;15.90;99.90
21001;DHT22;10658;50.920;12.238;2023-08-08T19:02:03;15.90;99.90
21001;DHT22;10658;50.920;12.238;2023-08-08T19:06:09;16.00;99.90
21001;DHT22;10658;50.920;12.238;2023-08-08T19:10:12;16.00;99.90
21001;DHT22;10658;50.920;12.238;2023-08-08T19:14:15;15.90;99.90
21001;DHT22;10658;50.920;12.238;2023-08-08T19:18:18;15.90;99.90
21001;DHT22;10658;50.920;12.238;2023-08-08T19:22:21;15.80;99.90
21001;DHT22;10658;50.920;12.238;2023-08-08T19:26:22;15.70;99.90
21001;DHT22;10658;50.920;12.238;2023-08-08T19:30:25;15.70;99.90
21001;DHT22;10658;50.920;12.238;2023-08-08T19:34:27;15.50;99.90
21001;DHT22;10658;50.920;12.238;2023-08-08T19:38:34;15.40;99.90
21001;DHT22;10658;50.920;12.238;2023-08-08T19:42:35;15.40;99.90
21001;DHT22;10658;50.920;12.238;2023-08-08T19:46:36;15.20;99.90
21001;DHT22;10658;50.920;12.238;2023-08-08T19:50:37;15.20;99.90
21001;DHT22;10658;50.920;12.238;2023-08-08T19:54:41;15.10;99.90
21001;DHT22;10658;50.920;12.238;2023-08-08T19:58:42;15.00;99.90
21001;DHT22;10658;50.920;12.238;2023-08-08T20:02:44;15.00;99.90
21001;DHT22;10658;50.920;12.238;2023-08-08T20:06:48;14.90;99.90
21001;DHT22;10658;50.920;12.238;2023-08-08T20:10:50;14.80;99.90
21001;DHT22;10658;50.920;12.238;2023-08-08T20:14:51;14.60;99.90
21001;DHT22;10658;50.920;12.238;2023-08-08T20:18:52;14.60;99.90
21001;DHT22;10658;50.920;12.238;2023-08-08T20:22:53;14.50;99.90
21001;DHT22;10658;50.920;12.238;2023-08-08T20:26:56;14.50;99.90
21001;DHT22;10658;50.920;12.238;2023-08-08T20:30:57;14.40;99.90
21001;DHT22;10658;50.920;12.238;2023-08-08T20:35:01;14.40;99.90
21001;DHT22;10658;50.920;12.238;2023-08-08T20:39:03;14.30;99.90
21001;DHT22;10658;50.920;12.238;2023-08-08T20:43:05;14.20;99.90
21001;DHT22;10658;50.920;12.238;2023-08-08T20:47:06;14.20;99.90
21001;DHT22;10658;50.920;12.238;2023-08-08T20:51:08;14.20;99.90
21001;DHT22;10658;50.920;12.238;2023-08-08T20:55:09;14.10;99.90
21001;DHT22;10658;50.920;12.238;2023-08-08T20:59:10;14.00;99.90
21001;DHT22;10658;50.920;12.238;2023-08-08T21:03:12;14.00;99.90
21001;DHT22;10658;50.920;12.238;2023-08-08T21:07:13;14.00;99.90
21001;DHT22;10658;50.920;12.238;2023-08-08T21:11:15;14.00;99.90
21001;DHT22;10658;50.920;12.238;2023-08-08T21:15:16;14.00;99.90
21001;DHT22;10658;50.920;12.238;2023-08-08T21:19:17;14.00;99.90
21001;DHT22;10658;50.920;12.238;2023-08-08T21:23:19;13.90;99.90
21001;DHT22;10658;50.920;12.238;2023-08-08T21:27:20;13.90;99.90
21001;DHT22;10658;50.920;12.238;2023-08-08T21:31:24;13.80;99.90
21001;DHT22;10658;50.920;12.238;2023-08-08T21:35:26;13.70;99.90
21001;DHT22;10658;50.920;12.238;2023-08-08T21:39:27;13.70;99.90
21001;DHT22;10658;50.920;12.238;2023-08-08T21:43:28;13.60;99.90
21001;DHT22;10658;50.920;12.238;2023-08-08T21:47:32;13.60;99.90
21001;DHT22;10658;50.920;12.238;2023-08-08T21:51:34;13.50;99.90
21001;DHT22;10658;50.920;12.238;2023-08-08T21:55:35;13.60;99.90
21001;DHT22;10658;50.920;12.238;2023-08-08T21:59:36;13.50;99.90
21001;DHT22;10658;50.920;12.238;2023-08-08T22:03:36;13.50;99.90
21001;DHT22;10658;50.920;12.238;2023-08-08T22:07:37;13.40;99.90
21001;DHT22;10658;50.920;12.238;2023-08-08T22:11:38;13.50;99.90
21001;DHT22;10658;50.920;12.238;2023-08-08T22:15:39;13.70;99.90
21001;DHT22;10658;50.920;12.238;2023-08-08T22:19:39;13.70;99.90
21001;DHT22;10658;50.920;12.238;2023-08-08T22:23:40;13.80;99.90
21001;DHT22;10658;50.920;12.238;2023-08-08T22:27:41;13.80;99.90
21001;DHT22;10658;50.920;12.238;2023-08-08T22:31:42;13.80;99.90
21001;DHT22;10658;50.920;12.238;2023-08-08T22:35:43;13.80;99.90
21001;DHT22;10658;50.920;12.238;2023-08-08T22:39:44;13.90;99.90
21001;DHT22;10658;50.920;12.238;2023-08-08T22:43:45;13.90;99.90
21001;DHT22;10658;50.920;12.238;2023-08-08T22:47:45;13.90;99.90
21001;DHT22;10658;50.920;12.238;2023-08-08T22:51:46;13.90;99.90
21001;DHT22;10658;50.920;12.238;2023-08-08T22:55:47;13.90;99.90
21001;DHT22;10658;50.920;12.238;2023-08-08T22:59:48;13.90;99.90
21001;DHT22;10658;50.920;12.238;2023-08-08T23:03:49;13.80;99.90
21001;DHT22;10658;50.920;12.238;2023-08-08T23:07:49;13.80;99.90
21001;DHT22;10658;50.920;12.238;2023-08-08T23:11:50;13.80;99.90
21001;DHT22;10658;50.920;12.238;2023-08-08T23:15:51;13.80;99.90
21001;DHT22;10658;50.920;12.238;2023-08-08T23:19:52;13.80;99.90
21001;DHT22;10658;50.920;12.238;2023-08-08T23:23:53;13.80;99.90
21001;DHT22;10658;50.920;12.238;2023-08-08T23:27:54;13.80;99.90
21001;DHT22;10658;50.920;12.238;2023-08-08T23:31:55;13.80;99.90
21001;DHT22;10658;50.920;12.238;2023-08-08T23:35:56;13.80;99.90
21001;DHT22;10658;50.920;12.238;2023-08-08T23:39:57;13.80;99.90
21001;DHT22;10658;50.920;12.238;2023-08-08T23:43:58;13.80;99.90
21001;DHT22;10658;50.920;12.238;2023-08-08T23:47:59;13.80;99.90
21001;DHT22;10658;50.920;12.238;2023-08-08T23:52:01;13.80;99.90
21001;DHT22;10658;50.920;12.238;2023-08-08T23:56:02;13.90;99.90
